Time;durP1;ratioP1;P1;durP2;ratioP2;P2;SDS_P1;SDS_P2;PMS_P1;PMS_P2;Temp;Humidity;BMP_temperature;BMP_pressure;BME280_temperature;BME280_humidity;BME280_pressure;Samples;Min_cycle;Max_cycle;Signal;HPM_P1;HPM_P2
2022/03/03 00:02:07;;;;;;;0.20;0.10;;;12.40;99.90;;;;;;25444537;23;20183;-69
2022/03/03 00:12:11;;;;;;;1.07;1.03;;;11.90;99.90;;;;;;25443090;23;20171;-68
2022/03/03 00:22:16;;;;;;;0.20;0.10;;;11.60;99.90;;;;;;25443639;23;20206;-69
2022/03/03 00:32:19;;;;;;;0.20;0.10;;;11.30;99.90;;;;;;25417598;23;20188;-69
2022/03/03 00:42:25;;;;;;;0.20;0.00;;;11.10;99.90;;;;;;25446907;23;20192;-68
2022/03/03 00:52:29;;;;;;;0.20;0.10;;;10.90;99.90;;;;;;25448250;23;20160;-68
2022/03/03 01:02:34;;;;;;;0.20;0.20;;;11.10;99.90;;;;;;25445753;23;20188;-68
2022/03/03 01:12:39;;;;;;;0.20;0.00;;;11.00;99.90;;;;;;25453015;23;20231;-67
2022/03/03 01:22:44;;;;;;;0.20;0.10;;;10.90;99.90;;;;;;25428855;23;20204;-67
2022/03/03 01:32:48;;;;;;;0.20;0.00;;;10.80;99.90;;;;;;25454196;23;20183;-67
2022/03/03 01:42:53;;;;;;;0.20;0.00;;;10.70;99.90;;;;;;25454399;23;20191;-70
2022/03/03 01:52:57;;;;;;;0.20;0.10;;;10.60;99.90;;;;;;25428442;23;20174;-71
2022/03/03 02:03:03;;;;;;;0.20;0.10;;;11.00;99.90;;;;;;25453945;23;20203;-70
2022/03/03 02:13:07;;;;;;;0.20;0.10;;;11.10;99.90;;;;;;25454003;23;20160;-70
2022/03/03 02:23:12;;;;;;;0.20;0.10;;;11.00;99.90;;;;;;25452506;23;20207;-69
2022/03/03 02:33:16;;;;;;;0.20;0.00;;;10.80;99.90;;;;;;25451589;23;20187;-69
2022/03/03 02:43:21;;;;;;;0.20;0.00;;;10.60;99.90;;;;;;25452368;23;20206;-70
2022/03/03 02:53:26;;;;;;;0.20;0.10;;;10.50;99.90;;;;;;25425449;23;20268;-70
2022/03/03 03:03:31;;;;;;;0.20;0.10;;;10.00;99.90;;;;;;25450346;23;20187;-70
2022/03/03 03:13:35;;;;;;;0.20;0.10;;;9.80;99.90;;;;;;25451139;23;20155;-71
2022/03/03 03:23:40;;;;;;;0.20;0.07;;;9.30;99.90;;;;;;25450020;23;20200;-70
2022/03/03 03:33:44;;;;;;;0.20;0.10;;;9.00;99.90;;;;;;25449234;23;20183;-70
2022/03/03 03:43:49;;;;;;;0.20;0.00;;;9.20;99.90;;;;;;25449635;23;20198;-70
2022/03/03 03:53:53;;;;;;;0.20;0.00;;;9.20;99.90;;;;;;25423416;23;20211;-72
2022/03/03 04:03:58;;;;;;;0.20;0.00;;;9.20;99.90;;;;;;25448822;23;20183;-71
2022/03/03 04:14:02;;;;;;;0.20;0.00;;;9.30;99.90;;;;;;25448791;23;20225;-71
2022/03/03 04:24:10;;;;;;;0.20;0.10;;;9.40;99.90;;;;;;25448042;23;20207;-67
2022/03/03 04:34:13;;;;;;;0.20;0.00;;;9.40;99.90;;;;;;25448060;23;20187;-68
2022/03/03 04:44:19;;;;;;;0.20;0.00;;;9.50;99.90;;;;;;25452797;23;20248;-67
2022/03/03 04:54:23;;;;;;;0.20;0.00;;;9.40;99.90;;;;;;25430308;23;20171;-67
2022/03/03 05:04:28;;;;;;;0.20;0.10;;;9.30;99.90;;;;;;25428782;23;20188;-65
2022/03/03 05:14:32;;;;;;;0.20;0.07;;;9.30;99.90;;;;;;25453971;23;20168;-67
2022/03/03 05:24:38;;;;;;;0.20;0.10;;;9.30;99.90;;;;;;25454049;23;20195;-66
2022/03/03 05:34:42;;;;;;;0.20;0.00;;;9.30;99.90;;;;;;25451927;23;20203;-66
2022/03/03 05:44:47;;;;;;;0.20;0.10;;;9.30;99.90;;;;;;25452903;23;20503;-66
2022/03/03 05:54:52;;;;;;;0.20;0.00;;;9.10;99.90;;;;;;25447802;23;20472;-67
2022/03/03 06:04:58;;;;;;;0.20;0.00;;;9.00;99.90;;;;;;25423440;23;20217;-68
2022/03/03 06:15:04;;;;;;;0.20;0.00;;;9.00;99.90;;;;;;25450080;23;20195;-68
2022/03/03 06:25:11;;;;;;;0.20;0.00;;;8.90;99.90;;;;;;25446987;23;20270;-69
2022/03/03 06:35:15;;;;;;;0.20;0.10;;;9.00;99.90;;;;;;25445790;23;20211;-67
2022/03/03 06:45:25;;;;;;;0.20;0.03;;;9.10;99.90;;;;;;25445760;23;20199;-67
2022/03/03 06:55:30;;;;;;;0.20;0.00;;;9.20;99.90;;;;;;25442329;23;20170;-66
2022/03/03 07:05:35;;;;;;;0.20;0.10;;;9.40;99.90;;;;;;25437597;23;20191;-66
2022/03/03 07:15:46;;;;;;;0.20;0.10;;;9.60;99.90;;;;;;25440975;23;20214;-66
2022/03/03 07:25:56;;;;;;;2.83;0.53;;;9.80;99.90;;;;;;25444359;23;20217;-65
2022/03/03 07:36:03;;;;;;;0.20;0.10;;;10.20;99.90;;;;;;25442433;23;20194;-66
2022/03/03 07:46:09;;;;;;;0.20;0.10;;;10.50;99.90;;;;;;25441170;23;20203;-66
2022/03/03 07:56:16;;;;;;;0.20;0.10;;;10.50;99.90;;;;;;25440844;23;20156;-67
2022/03/03 08:06:22;;;;;;;0.20;0.00;;;10.70;99.90;;;;;;25440879;23;20202;-70
2022/03/03 08:16:27;;;;;;;0.20;0.10;;;11.10;99.90;;;;;;25439651;23;20191;-71
2022/03/03 08:26:36;;;;;;;0.20;0.10;;;11.60;99.90;;;;;;25413904;23;20235;-73
2022/03/03 08:36:46;;;;;;;0.20;0.10;;;12.00;99.90;;;;;;25442644;23;20187;-72
2022/03/03 08:46:52;;;;;;;0.20;0.10;;;12.50;99.90;;;;;;25417427;23;20194;-73
2022/03/03 08:56:56;;;;;;;0.20;0.03;;;12.90;99.90;;;;;;25441127;23;20178;-72
2022/03/03 09:07:01;;;;;;;0.20;0.10;;;13.30;99.90;;;;;;25441224;23;20206;-72
2022/03/03 09:17:05;;;;;;;0.87;0.50;;;13.60;99.90;;;;;;25442918;23;20196;-66
2022/03/03 09:27:11;;;;;;;0.20;0.00;;;14.00;99.90;;;;;;25441962;23;20207;-68
2022/03/03 09:37:15;;;;;;;0.20;0.10;;;14.30;99.90;;;;;;25422509;23;20188;-70
2022/03/03 09:47:20;;;;;;;0.20;0.00;;;14.40;99.90;;;;;;25448492;23;20191;-74
2022/03/03 09:57:26;;;;;;;0.20;0.00;;;14.60;99.90;;;;;;25445327;23;20168;-69
2022/03/03 10:07:31;;;;;;;0.20;0.00;;;15.10;99.90;;;;;;25446813;23;20313;-68
2022/03/03 10:17:39;;;;;;;0.20;0.00;;;15.10;99.90;;;;;;25433477;23;20199;-74
2022/03/03 10:27:44;;;;;;;0.20;0.03;;;15.50;99.90;;;;;;25432601;23;20298;-77
2022/03/03 10:37:49;;;;;;;0.20;0.10;;;15.90;99.90;;;;;;25433479;23;20214;-79
2022/03/03 10:48:03;;;;;;;0.20;0.00;;;16.00;99.90;;;;;;25406646;23;20215;-66
2022/03/03 10:58:07;;;;;;;0.20;0.07;;;16.60;99.90;;;;;;25432520;23;20214;-66
2022/03/03 11:08:12;;;;;;;0.20;0.10;;;16.80;99.90;;;;;;25408455;23;20207;-66
2022/03/03 11:18:18;;;;;;;0.20;0.10;;;17.10;99.90;;;;;;25431388;23;20289;-65
2022/03/03 11:28:35;;;;;;;0.20;0.20;;;17.30;99.90;;;;;;25434423;23;20190;-67
2022/03/03 11:38:46;;;;;;;0.20;0.10;;;18.30;99.90;;;;;;25405558;23;20195;-66
2022/03/03 11:49:11;;;;;;;0.20;0.00;;;19.20;99.90;;;;;;25403491;23;20199;-68
2022/03/03 11:59:16;;;;;;;0.20;0.10;;;19.40;99.90;;;;;;25405010;23;20175;-65
2022/03/03 12:09:28;;;;;;;0.20;0.00;;;20.00;99.90;;;;;;25403251;23;20196;-67
2022/03/03 12:19:36;;;;;;;0.20;0.00;;;20.90;99.90;;;;;;25430477;23;20199;-67
2022/03/03 12:29:57;;;;;;;0.20;0.10;;;20.70;99.90;;;;;;25431037;23;20191;-67
2022/03/03 12:40:20;;;;;;;0.20;0.10;;;19.90;99.90;;;;;;25430333;23;20170;-71
2022/03/03 12:50:27;;;;;;;0.20;0.00;;;17.70;99.90;;;;;;25430387;23;20195;-68
2022/03/03 13:00:34;;;;;;;0.50;0.50;;;16.40;99.90;;;;;;25430828;23;20171;-68
2022/03/03 13:10:42;;;;;;;0.20;0.00;;;17.30;99.90;;;;;;25435748;23;20191;-70
2022/03/03 13:20:54;;;;;;;0.20;0.00;;;20.00;99.90;;;;;;25434339;23;20211;-70
2022/03/03 13:31:02;;;;;;;0.20;0.00;;;21.40;99.90;;;;;;25427699;23;20418;-71
2022/03/03 13:41:24;;;;;;;0.20;0.00;;;22.30;99.90;;;;;;25424852;23;20537;-69
2022/03/03 13:51:29;;;;;;;0.20;0.00;;;23.90;99.90;;;;;;25406454;23;20198;-68
2022/03/03 14:01:34;;;;;;;0.20;0.00;;;22.90;99.90;;;;;;25433796;23;20196;-67
2022/03/03 14:11:39;;;;;;;0.20;0.00;;;22.20;99.90;;;;;;25433119;23;20214;-67
2022/03/03 14:58:49;;;;;;;0.20;0.10;;;22.90;99.90;;;;;;25428250;23;20203;-67
2022/03/03 15:08:52;;;;;;;0.20;0.00;;;22.30;99.90;;;;;;25430618;23;20190;-66
2022/03/03 15:19:02;;;;;;;0.20;0.10;;;21.00;99.90;;;;;;25430164;23;20861;-67
2022/03/03 15:29:08;;;;;;;0.20;0.10;;;21.30;99.90;;;;;;25403581;23;20249;-70
2022/03/03 15:39:13;;;;;;;0.20;0.00;;;20.80;99.90;;;;;;25427215;23;20183;-70
2022/03/03 15:49:19;;;;;;;0.20;0.00;;;20.60;99.90;;;;;;25427043;23;20180;-70
2022/03/03 15:59:25;;;;;;;0.20;0.10;;;20.10;99.90;;;;;;25401344;23;20208;-70
2022/03/03 16:09:33;;;;;;;0.20;0.00;;;20.10;99.90;;;;;;25426600;23;20191;-70
2022/03/03 16:19:38;;;;;;;0.20;0.10;;;19.20;99.90;;;;;;25399781;23;20239;-83
2022/03/03 16:29:42;;;;;;;0.20;0.10;;;19.10;99.90;;;;;;25427359;23;20191;-85
2022/03/03 16:39:47;;;;;;;0.20;0.10;;;17.20;99.90;;;;;;25398393;23;20172;-78
2022/03/03 16:49:51;;;;;;;0.20;0.00;;;16.50;99.90;;;;;;25428083;23;20206;-75
2022/03/03 16:59:56;;;;;;;0.20;0.10;;;15.90;99.90;;;;;;25429997;23;20191;-80
2022/03/03 17:10:01;;;;;;;0.20;0.00;;;15.20;99.90;;;;;;25426189;23;20183;-81
2022/03/03 17:20:07;;;;;;;0.20;0.00;;;14.80;99.90;;;;;;25425865;23;20182;-81
2022/03/03 17:30:13;;;;;;;0.20;0.00;;;14.40;99.90;;;;;;25423065;23;20222;-79
2022/03/03 17:40:23;;;;;;;0.20;0.00;;;14.40;99.90;;;;;;25376382;23;20236;-80
2022/03/03 17:50:26;;;;;;;0.20;0.00;;;14.30;99.90;;;;;;25429605;23;20205;-75
2022/03/03 18:00:32;;;;;;;0.20;0.00;;;14.10;99.90;;;;;;25442163;23;20166;-77
2022/03/03 18:10:36;;;;;;;0.20;0.00;;;14.00;99.90;;;;;;25417750;23;20211;-77
2022/03/03 18:20:41;;;;;;;0.20;0.00;;;13.80;99.90;;;;;;25443302;23;20236;-77
2022/03/03 18:30:45;;;;;;;0.20;0.10;;;13.70;99.90;;;;;;25441447;23;20203;-76
2022/03/03 18:40:52;;;;;;;0.20;0.00;;;13.60;99.90;;;;;;25442390;23;20172;-74
2022/03/03 18:50:56;;;;;;;0.20;0.10;;;13.50;99.90;;;;;;25407763;23;20218;-75
2022/03/03 19:01:01;;;;;;;0.20;0.10;;;13.50;99.90;;;;;;25440063;23;20163;-76
2022/03/03 19:11:06;;;;;;;0.20;0.00;;;13.50;99.90;;;;;;25416506;23;20175;-75
2022/03/03 19:21:11;;;;;;;0.20;0.10;;;13.20;99.90;;;;;;25415448;23;20171;-74
2022/03/03 19:31:15;;;;;;;0.20;0.00;;;12.20;99.90;;;;;;25442601;23;20195;-75
2022/03/03 19:41:20;;;;;;;0.20;0.10;;;12.10;99.90;;;;;;25442985;23;20231;-76
2022/03/03 19:51:25;;;;;;;0.20;0.10;;;11.70;99.90;;;;;;25440076;23;20199;-75
2022/03/03 20:01:31;;;;;;;0.20;0.20;;;11.30;99.90;;;;;;25415363;23;20172;-74
2022/03/03 20:11:35;;;;;;;0.20;0.00;;;11.50;99.90;;;;;;25441856;23;20199;-74
2022/03/03 20:21:40;;;;;;;0.20;0.10;;;11.00;99.90;;;;;;25441123;23;20172;-74
2022/03/03 20:31:44;;;;;;;0.20;0.13;;;11.00;99.90;;;;;;25440749;23;20199;-75
2022/03/03 20:41:49;;;;;;;0.20;0.03;;;10.70;99.90;;;;;;25442395;23;20250;-75
2022/03/03 20:51:54;;;;;;;0.20;0.10;;;10.70;99.90;;;;;;25442308;23;20203;-65
2022/03/03 21:02:00;;;;;;;0.20;0.10;;;10.80;99.90;;;;;;25442616;23;20163;-64
2022/03/03 21:12:05;;;;;;;0.20;0.10;;;10.90;99.90;;;;;;25443136;23;20247;-65
2022/03/03 21:22:10;;;;;;;0.20;0.10;;;11.00;99.90;;;;;;25440994;23;20227;-66
2022/03/03 21:32:14;;;;;;;0.20;0.10;;;11.30;99.90;;;;;;25425181;23;20347;-76
2022/03/03 21:42:19;;;;;;;0.20;0.10;;;11.10;99.90;;;;;;25443754;23;20164;-76
2022/03/03 21:52:23;;;;;;;0.20;0.10;;;11.00;99.90;;;;;;25447937;23;20203;-65
2022/03/03 22:02:29;;;;;;;0.20;0.10;;;11.20;99.90;;;;;;25448077;23;20171;-64
2022/03/03 22:12:34;;;;;;;0.20;0.10;;;11.30;99.90;;;;;;25450191;23;20180;-73
2022/03/03 22:22:41;;;;;;;0.20;0.10;;;11.40;99.90;;;;;;25450063;23;20171;-73
2022/03/03 22:32:46;;;;;;;0.20;0.10;;;11.50;99.90;;;;;;25449435;23;20210;-73
2022/03/03 22:42:51;;;;;;;0.20;0.10;;;11.50;99.90;;;;;;25448059;23;20172;-74
2022/03/03 22:52:54;;;;;;;0.20;0.10;;;11.50;99.90;;;;;;25422231;23;20199;-73
2022/03/03 23:13:21;;;;;;;0.20;0.10;;;11.60;99.90;;;;;;25448192;23;20220;-73
2022/03/03 23:23:27;;;;;;;0.20;0.10;;;11.30;99.90;;;;;;25447119;23;20168;-69
2022/03/03 23:33:31;;;;;;;0.20;0.10;;;11.00;99.90;;;;;;25447564;23;20250;-69
2022/03/03 23:43:36;;;;;;;0.20;0.10;;;10.80;99.90;;;;;;25445384;23;20174;-68
2022/03/03 23:53:40;;;;;;;0.20;0.10;;;10.20;99.90;;;;;;25445789;23;20199;-68
